Time;durP1;ratioP1;P1;durP2;ratioP2;P2;SDS_P1;SDS_P2;PMS_P1;PMS_P2;Temp;Humidity;BMP_temperature;BMP_pressure;BME280_temperature;BME280_humidity;BME280_pressure;Samples;Min_cycle;Max_cycle;Signal;HPM_P1;HPM_P2
2021/06/22 00:01:48;;;;;;;4.93;3.75;;;17.90;99.90;;;;;;5062141;28;20488;-65
2021/06/22 00:04:14;;;;;;;5.22;4.35;;;17.90;99.90;;;;;;5060923;28;20476;-65
2021/06/22 00:06:39;;;;;;;7.00;4.53;;;17.80;99.90;;;;;;5060314;28;20427;-65
2021/06/22 00:09:05;;;;;;;9.90;4.40;;;17.80;99.90;;;;;;5062509;28;20040;-65
2021/06/22 00:11:31;;;;;;;7.13;5.18;;;17.80;99.90;;;;;;5062829;28;20020;-65
2021/06/22 00:13:58;;;;;;;5.57;4.68;;;17.80;99.90;;;;;;5060328;28;20055;-65
2021/06/22 00:16:24;;;;;;;6.65;5.13;;;17.80;99.90;;;;;;5060216;28;20033;-65
2021/06/22 00:18:49;;;;;;;8.70;4.50;;;17.80;99.90;;;;;;5062610;28;20650;-65
2021/06/22 00:21:15;;;;;;;7.47;4.40;;;17.70;99.90;;;;;;5059972;28;20029;-65
2021/06/22 00:23:41;;;;;;;6.97;4.65;;;17.70;99.90;;;;;;5062382;28;20112;-65
2021/06/22 00:26:07;;;;;;;5.07;4.55;;;17.70;99.90;;;;;;5061158;28;20167;-65
2021/06/22 00:28:32;;;;;;;7.70;4.85;;;17.70;99.90;;;;;;5062161;28;20059;-65
2021/06/22 00:30:58;;;;;;;5.85;5.28;;;17.70;99.90;;;;;;5062808;28;20032;-65
2021/06/22 00:33:24;;;;;;;9.32;5.53;;;17.70;99.90;;;;;;5061294;28;20107;-65
2021/06/22 00:35:49;;;;;;;6.70;4.85;;;17.80;99.90;;;;;;5062462;28;20106;-65
2021/06/22 00:38:15;;;;;;;7.07;4.97;;;17.80;99.90;;;;;;5061963;28;20100;-65
2021/06/22 00:40:41;;;;;;;5.85;4.35;;;17.80;99.90;;;;;;5061807;28;20112;-65
2021/06/22 00:43:06;;;;;;;5.88;4.40;;;17.80;99.90;;;;;;5061590;28;20508;-67
2021/06/22 00:45:34;;;;;;;7.43;4.68;;;17.80;99.90;;;;;;5057156;28;20023;-65
2021/06/22 00:48:00;;;;;;;5.97;4.30;;;17.80;99.90;;;;;;5061122;28;20039;-65
2021/06/22 00:50:26;;;;;;;10.05;4.32;;;17.80;99.90;;;;;;5065101;28;20044;-65
2021/06/22 00:52:52;;;;;;;5.55;4.35;;;17.80;99.90;;;;;;5065028;28;20078;-66
2021/06/22 00:55:32;;;;;;;5.88;4.70;;;17.70;99.90;;;;;;5065410;28;20470;-66
2021/06/22 00:58:05;;;;;;;8.02;4.80;;;17.70;99.90;;;;;;5068379;28;20059;-66
2021/06/22 01:00:32;;;;;;;8.43;4.40;;;17.70;99.90;;;;;;5065230;28;20033;-66
2021/06/22 01:02:59;;;;;;;5.93;4.90;;;17.70;99.90;;;;;;5068278;28;20024;-66
2021/06/22 01:05:26;;;;;;;6.22;4.60;;;17.80;99.90;;;;;;5064726;28;20409;-66
2021/06/22 01:07:53;;;;;;;6.03;4.10;;;17.80;99.90;;;;;;5067613;28;20028;-66
2021/06/22 01:10:20;;;;;;;4.63;3.78;;;17.90;99.90;;;;;;5064481;28;20060;-66
2021/06/22 01:12:46;;;;;;;5.55;3.70;;;17.90;99.90;;;;;;5064012;28;20040;-65
2021/06/22 01:15:13;;;;;;;5.88;3.83;;;17.80;99.90;;;;;;5062808;28;20471;-65
2021/06/22 01:17:39;;;;;;;9.43;3.50;;;17.80;99.90;;;;;;5063600;28;20032;-65
2021/06/22 01:20:05;;;;;;;8.73;3.30;;;17.80;99.90;;;;;;5065855;28;20037;-65
2021/06/22 01:22:31;;;;;;;9.93;3.70;;;17.80;99.90;;;;;;5059371;28;20060;-65
2021/06/22 01:24:57;;;;;;;4.75;3.55;;;17.70;99.90;;;;;;5061360;28;20049;-65
2021/06/22 01:27:23;;;;;;;4.68;2.88;;;17.70;99.90;;;;;;5062906;28;20033;-66
2021/06/22 01:29:49;;;;;;;6.32;3.25;;;17.70;99.90;;;;;;5065440;28;20664;-65
2021/06/22 01:32:15;;;;;;;4.25;3.22;;;17.70;99.90;;;;;;5063420;28;20082;-65
2021/06/22 01:34:41;;;;;;;6.10;3.30;;;17.70;99.90;;;;;;5065746;28;20413;-65
2021/06/22 01:37:08;;;;;;;6.88;3.35;;;17.70;99.90;;;;;;5064564;28;20386;-65
2021/06/22 01:39:34;;;;;;;6.50;3.20;;;17.70;99.90;;;;;;5062890;28;20117;-65
2021/06/22 01:42:00;;;;;;;4.65;3.00;;;17.70;99.90;;;;;;5068181;28;20474;-65
2021/06/22 01:44:27;;;;;;;6.10;3.20;;;17.60;99.90;;;;;;5063346;28;20050;-65
2021/06/22 01:46:54;;;;;;;4.18;3.20;;;17.60;99.90;;;;;;5065000;28;20032;-65
2021/06/22 01:49:19;;;;;;;5.57;2.90;;;17.50;99.90;;;;;;5061637;28;20125;-65
2021/06/22 01:51:45;;;;;;;6.28;3.47;;;17.50;99.90;;;;;;5061580;28;20707;-65
2021/06/22 01:54:10;;;;;;;5.40;3.05;;;17.40;99.90;;;;;;5063097;28;20048;-65
2021/06/22 01:56:37;;;;;;;5.68;3.83;;;17.40;99.90;;;;;;5068645;28;20385;-65
2021/06/22 01:59:04;;;;;;;3.35;3.03;;;17.30;99.90;;;;;;5073574;28;20042;-65
2021/06/22 02:01:30;;;;;;;4.18;3.75;;;17.20;99.90;;;;;;5073380;28;20017;-65
2021/06/22 02:03:56;;;;;;;5.82;4.38;;;17.20;99.90;;;;;;5073660;28;20366;-65
2021/06/22 02:06:22;;;;;;;6.80;5.00;;;17.10;99.90;;;;;;5073757;28;20027;-65
2021/06/22 02:08:47;;;;;;;6.28;4.47;;;17.10;99.90;;;;;;5064441;28;20327;-65
2021/06/22 02:11:13;;;;;;;6.45;4.65;;;17.10;99.90;;;;;;5073381;28;20515;-65
2021/06/22 02:13:39;;;;;;;7.28;4.65;;;17.10;99.90;;;;;;5073010;28;20033;-65
2021/06/22 02:16:04;;;;;;;7.03;5.45;;;17.10;99.90;;;;;;5073406;28;20458;-65
2021/06/22 02:18:30;;;;;;;5.00;4.60;;;17.10;99.90;;;;;;5072688;28;20024;-65
2021/06/22 02:20:56;;;;;;;7.38;4.55;;;17.00;99.90;;;;;;5073306;28;20033;-65
2021/06/22 02:23:21;;;;;;;8.27;4.43;;;17.00;99.90;;;;;;5072883;28;20032;-65
2021/06/22 02:25:47;;;;;;;7.05;4.90;;;17.00;99.90;;;;;;5072304;28;20028;-65
2021/06/22 02:28:18;;;;;;;4.68;4.25;;;17.00;99.90;;;;;;5073047;28;20471;-65
2021/06/22 02:30:44;;;;;;;5.03;4.43;;;17.00;99.90;;;;;;5068714;28;20036;-65
2021/06/22 02:33:10;;;;;;;5.40;4.82;;;17.00;99.90;;;;;;5065243;28;20078;-65
2021/06/22 02:35:35;;;;;;;7.80;4.85;;;17.00;99.90;;;;;;5072377;28;20021;-65
2021/06/22 02:38:03;;;;;;;6.75;4.80;;;17.10;99.90;;;;;;5072720;28;20031;-65
2021/06/22 02:40:29;;;;;;;6.18;4.63;;;17.10;99.90;;;;;;5071645;28;20153;-65
2021/06/22 02:42:55;;;;;;;6.13;4.80;;;17.10;99.90;;;;;;5073029;28;20107;-65
2021/06/22 02:45:21;;;;;;;4.93;4.25;;;17.10;99.90;;;;;;5072264;28;20108;-66
2021/06/22 02:47:47;;;;;;;5.85;4.55;;;17.10;99.90;;;;;;5072082;28;20491;-65
2021/06/22 02:50:15;;;;;;;6.45;4.50;;;17.10;99.90;;;;;;5071946;28;20131;-65
2021/06/22 02:52:41;;;;;;;6.65;4.25;;;17.10;99.90;;;;;;5071450;28;20373;-65
2021/06/22 02:55:17;;;;;;;9.23;4.93;;;17.10;99.90;;;;;;5072388;28;20107;-65
2021/06/22 02:57:43;;;;;;;5.35;4.85;;;17.10;99.90;;;;;;5071308;28;20032;-65
2021/06/22 03:00:10;;;;;;;6.60;4.90;;;17.10;99.90;;;;;;5072363;28;20073;-65
2021/06/22 03:02:35;;;;;;;8.05;4.93;;;17.10;99.90;;;;;;5070813;28;20493;-65
2021/06/22 03:05:01;;;;;;;7.88;5.10;;;17.10;99.90;;;;;;5064630;28;20032;-65
2021/06/22 03:07:26;;;;;;;6.40;4.28;;;17.00;99.90;;;;;;5063510;28;20021;-65
2021/06/22 03:09:52;;;;;;;6.22;4.63;;;17.10;99.90;;;;;;5070930;28;20439;-65
2021/06/22 03:12:18;;;;;;;5.38;4.30;;;17.00;99.90;;;;;;5071387;28;20478;-65
2021/06/22 03:14:43;;;;;;;6.47;4.68;;;17.00;99.90;;;;;;5071626;28;20040;-65
2021/06/22 03:17:09;;;;;;;6.03;4.07;;;17.10;99.90;;;;;;5072039;28;20482;-65
2021/06/22 03:19:35;;;;;;;7.70;4.03;;;17.10;99.90;;;;;;5071162;28;20032;-65
2021/06/22 03:22:00;;;;;;;9.70;4.93;;;17.10;99.90;;;;;;5072079;28;20090;-65
2021/06/22 03:24:26;;;;;;;6.38;4.50;;;17.00;99.90;;;;;;5071241;28;20448;-65
2021/06/22 03:26:51;;;;;;;4.07;3.65;;;17.10;99.90;;;;;;5071436;28;20059;-65
2021/06/22 03:29:19;;;;;;;7.93;4.40;;;17.10;99.90;;;;;;5071702;28;20045;-65
2021/06/22 03:31:45;;;;;;;6.07;3.97;;;17.10;99.90;;;;;;5070897;28;20083;-65
2021/06/22 03:34:10;;;;;;;4.65;4.18;;;17.00;99.90;;;;;;5071906;28;20082;-65
2021/06/22 03:36:36;;;;;;;8.75;3.97;;;17.10;99.90;;;;;;5052530;28;20032;-65
2021/06/22 03:39:03;;;;;;;5.30;3.95;;;17.00;99.90;;;;;;5071669;28;20028;-65
2021/06/22 03:41:32;;;;;;;6.63;4.20;;;17.10;99.90;;;;;;5070728;28;20036;-65
2021/06/22 03:43:58;;;;;;;5.90;3.78;;;17.10;99.90;;;;;;5071984;28;20024;-65
2021/06/22 03:46:25;;;;;;;4.93;3.22;;;17.10;99.90;;;;;;5071181;28;20473;-65
2021/06/22 03:48:50;;;;;;;4.32;3.90;;;17.10;99.90;;;;;;5070700;28;20098;-66
2021/06/22 03:51:16;;;;;;;6.05;3.78;;;17.10;99.90;;;;;;5071909;28;20032;-67
2021/06/22 03:53:42;;;;;;;5.03;3.85;;;17.10;99.90;;;;;;5070358;28;20075;-67
2021/06/22 03:56:09;;;;;;;7.90;3.75;;;17.10;99.90;;;;;;5071190;28;20430;-66
2021/06/22 03:58:35;;;;;;;4.72;4.10;;;17.10;99.90;;;;;;5070200;28;20068;-67
2021/06/22 04:01:02;;;;;;;5.45;3.80;;;17.10;99.90;;;;;;5071418;28;20098;-65
2021/06/22 04:03:28;;;;;;;5.68;4.10;;;17.10;99.90;;;;;;5071068;28;20032;-64
2021/06/22 04:05:54;;;;;;;7.25;4.63;;;17.10;99.90;;;;;;5070958;28;20394;-65
2021/06/22 04:08:19;;;;;;;8.82;4.65;;;17.10;99.90;;;;;;5066537;28;20489;-64
2021/06/22 04:10:45;;;;;;;6.72;4.82;;;17.10;99.90;;;;;;5070324;28;20040;-64
2021/06/22 04:13:11;;;;;;;5.95;4.32;;;17.20;99.90;;;;;;5071342;28;20024;-64
2021/06/22 04:15:37;;;;;;;6.93;4.65;;;17.20;99.90;;;;;;5070210;28;20032;-66
2021/06/22 04:18:07;;;;;;;7.38;4.50;;;17.20;99.90;;;;;;5071655;28;20036;-64
2021/06/22 04:20:34;;;;;;;6.93;4.30;;;17.20;99.90;;;;;;5070538;28;20036;-65
2021/06/22 04:23:00;;;;;;;6.65;4.40;;;17.30;99.90;;;;;;5070343;28;20024;-65
2021/06/22 04:25:26;;;;;;;11.10;4.60;;;17.30;99.90;;;;;;5070886;28;20036;-66
2021/06/22 04:27:52;;;;;;;7.10;4.00;;;17.30;99.90;;;;;;5070285;28;20029;-64
2021/06/22 04:30:18;;;;;;;5.80;4.38;;;17.40;99.90;;;;;;5070980;28;20389;-64
2021/06/22 04:32:44;;;;;;;5.53;4.55;;;17.40;99.90;;;;;;5070006;28;20047;-64
2021/06/22 04:35:11;;;;;;;8.52;4.03;;;17.40;99.90;;;;;;5070537;28;20103;-64
2021/06/22 04:37:39;;;;;;;7.00;4.35;;;17.50;99.90;;;;;;5070218;28;20032;-64
2021/06/22 04:40:06;;;;;;;7.90;4.10;;;17.60;99.90;;;;;;5062892;28;20104;-64
2021/06/22 04:42:31;;;;;;;9.25;3.90;;;17.60;99.90;;;;;;5069337;28;20028;-64
2021/06/22 04:44:57;;;;;;;7.15;4.00;;;17.70;99.90;;;;;;5070312;28;20373;-64
2021/06/22 04:47:23;;;;;;;9.38;4.38;;;17.70;99.90;;;;;;5070693;28;20078;-64
2021/06/22 04:49:48;;;;;;;6.22;4.40;;;17.80;99.90;;;;;;5069682;28;20666;-64
2021/06/22 04:52:14;;;;;;;17.80;12.60;;;17.80;99.90;;;;;;5071091;28;20476;-64
2021/06/22 04:54:41;;;;;;;22.17;13.68;;;17.80;99.90;;;;;;5070269;28;20044;-64
2021/06/22 04:57:07;;;;;;;13.65;10.82;;;17.80;99.90;;;;;;5070624;28;20071;-64
2021/06/22 04:59:34;;;;;;;18.58;13.15;;;17.90;99.90;;;;;;5070202;28;20036;-64
2021/06/22 05:02:00;;;;;;;20.85;14.93;;;17.90;99.90;;;;;;5070689;28;20078;-64
2021/06/22 05:04:26;;;;;;;19.23;14.13;;;17.90;99.90;;;;;;5070562;28;20048;-65
2021/06/22 05:06:51;;;;;;;16.55;13.80;;;18.00;99.90;;;;;;5051932;28;20032;-65
2021/06/22 05:09:17;;;;;;;16.55;14.40;;;18.00;99.90;;;;;;5069935;28;20132;-64
2021/06/22 05:11:42;;;;;;;12.75;11.38;;;18.00;99.90;;;;;;5060747;28;20028;-64
2021/06/22 05:14:08;;;;;;;16.73;12.90;;;18.00;99.90;;;;;;5048569;28;20032;-64
2021/06/22 05:16:34;;;;;;;14.15;12.65;;;18.10;99.90;;;;;;5045895;28;20028;-64
2021/06/22 05:18:59;;;;;;;14.23;11.80;;;18.20;99.90;;;;;;5060507;28;20025;-64
2021/06/22 05:21:25;;;;;;;12.80;11.50;;;18.30;99.90;;;;;;5058385;28;20033;-64
2021/06/22 05:23:51;;;;;;;13.38;12.00;;;18.40;99.90;;;;;;5062575;28;20828;-64
2021/06/22 05:26:16;;;;;;;14.45;10.65;;;18.40;99.90;;;;;;5070471;28;20465;-64
2021/06/22 05:28:42;;;;;;;13.18;11.88;;;18.40;99.90;;;;;;5069348;28;20462;-64
2021/06/22 05:31:08;;;;;;;15.23;12.23;;;18.40;99.90;;;;;;5070503;28;20456;-64
2021/06/22 05:33:33;;;;;;;13.35;11.60;;;18.50;99.90;;;;;;5069754;28;20051;-64
2021/06/22 05:35:59;;;;;;;20.52;12.48;;;18.50;99.90;;;;;;5073570;28;20089;-72
2021/06/22 05:38:25;;;;;;;12.00;10.80;;;18.50;99.90;;;;;;5073630;28;20496;-65
2021/06/22 05:40:50;;;;;;;13.88;12.40;;;18.60;99.90;;;;;;5073059;28;20783;-64
2021/06/22 05:43:16;;;;;;;16.73;13.63;;;18.50;99.90;;;;;;5073240;28;20035;-64
2021/06/22 05:45:41;;;;;;;13.50;11.88;;;18.60;99.90;;;;;;5072237;28;20032;-64
2021/06/22 05:48:07;;;;;;;14.65;13.10;;;18.60;99.90;;;;;;5073027;28;20099;-67
2021/06/22 05:50:33;;;;;;;17.48;12.30;;;18.60;99.90;;;;;;5072880;28;20413;-65
2021/06/22 05:52:58;;;;;;;13.32;12.02;;;18.60;99.90;;;;;;5074293;28;20045;-66
2021/06/22 05:55:24;;;;;;;13.60;11.38;;;18.60;99.90;;;;;;5073888;28;20028;-64
2021/06/22 05:57:52;;;;;;;14.32;12.82;;;18.70;99.90;;;;;;5071909;28;20025;-64
2021/06/22 06:00:21;;;;;;;13.55;10.15;;;18.70;99.90;;;;;;5073544;28;20072;-69
2021/06/22 06:02:47;;;;;;;10.00;9.05;;;18.90;99.90;;;;;;5070652;28;20055;-65
2021/06/22 06:05:13;;;;;;;11.77;10.55;;;19.00;99.90;;;;;;5073074;28;20380;-65
2021/06/22 06:07:39;;;;;;;11.90;10.15;;;19.10;99.90;;;;;;5064665;28;20098;-67
2021/06/22 06:10:06;;;;;;;12.25;9.65;;;19.10;99.90;;;;;;5072162;28;20032;-65
2021/06/22 06:12:32;;;;;;;9.07;8.27;;;19.10;99.90;;;;;;5072509;28;20036;-65
2021/06/22 06:14:57;;;;;;;12.00;9.00;;;19.20;99.90;;;;;;5060511;28;20386;-65
2021/06/22 06:17:23;;;;;;;7.68;6.30;;;19.20;99.90;;;;;;5066598;28;20048;-66
2021/06/22 06:19:50;;;;;;;9.80;7.07;;;19.30;99.90;;;;;;5072625;28;20021;-66
2021/06/22 06:22:17;;;;;;;8.73;7.47;;;19.40;99.90;;;;;;5073621;28;20028;-66
2021/06/22 06:24:44;;;;;;;9.07;7.80;;;19.20;99.90;;;;;;5072044;28;20034;-66
2021/06/22 06:27:23;;;;;;;9.50;7.25;;;19.60;99.90;;;;;;5073017;28;20025;-66
2021/06/22 06:29:57;;;;;;;15.65;9.38;;;19.70;99.90;;;;;;5072071;28;20043;-66
2021/06/22 06:32:23;;;;;;;11.45;9.30;;;19.80;99.90;;;;;;5073311;28;20028;-66
2021/06/22 06:34:48;;;;;;;15.23;8.40;;;19.80;99.90;;;;;;5073030;28;20032;-68
2021/06/22 06:37:14;;;;;;;13.32;8.70;;;19.80;99.90;;;;;;5072897;28;20025;-69
2021/06/22 06:39:40;;;;;;;14.57;8.73;;;19.90;99.90;;;;;;5069565;28;20146;-64
2021/06/22 06:42:06;;;;;;;10.80;9.23;;;19.90;99.90;;;;;;5073007;28;20027;-64
2021/06/22 06:44:32;;;;;;;15.73;8.65;;;19.90;99.90;;;;;;5071871;28;20051;-63
2021/06/22 06:46:57;;;;;;;8.88;7.95;;;19.90;99.90;;;;;;5071586;28;20429;-64
2021/06/22 06:49:23;;;;;;;13.52;9.20;;;19.90;99.90;;;;;;5072070;28;20040;-64
2021/06/22 06:51:49;;;;;;;12.38;8.32;;;20.00;99.90;;;;;;5072236;28;20209;-74
2021/06/22 06:54:15;;;;;;;10.10;8.32;;;20.00;99.90;;;;;;5072622;28;20044;-76
2021/06/22 06:56:41;;;;;;;12.77;8.23;;;20.00;99.90;;;;;;5053781;28;20091;-73
2021/06/22 06:59:07;;;;;;;14.50;9.15;;;20.10;99.90;;;;;;5048946;28;20078;-73
2021/06/22 07:01:32;;;;;;;13.30;8.35;;;20.30;99.90;;;;;;5072462;28;20056;-73
2021/06/22 07:03:59;;;;;;;10.48;8.48;;;20.40;99.90;;;;;;5072419;28;20035;-73
2021/06/22 07:06:25;;;;;;;13.50;8.32;;;20.40;99.90;;;;;;5071967;28;20033;-74
2021/06/22 07:08:51;;;;;;;11.13;7.72;;;20.40;99.90;;;;;;5062758;28;20029;-73
2021/06/22 07:11:20;;;;;;;11.20;7.30;;;20.40;99.90;;;;;;5070938;28;20496;-73
2021/06/22 07:13:46;;;;;;;11.35;7.95;;;20.40;99.90;;;;;;5071092;28;20032;-73
2021/06/22 07:16:11;;;;;;;15.85;8.40;;;20.40;99.90;;;;;;5062871;28;20033;-73
2021/06/22 07:18:37;;;;;;;12.52;8.13;;;20.60;99.90;;;;;;5071443;28;20024;-73
2021/06/22 07:21:03;;;;;;;11.25;7.28;;;20.60;99.90;;;;;;5070915;28;20573;-73
2021/06/22 07:23:29;;;;;;;15.85;7.60;;;20.60;99.90;;;;;;5064957;28;20397;-73
2021/06/22 07:25:55;;;;;;;11.77;8.20;;;20.70;99.90;;;;;;5071117;28;20031;-73
2021/06/22 07:28:20;;;;;;;10.55;8.07;;;20.90;99.90;;;;;;5067032;28;20029;-73
2021/06/22 07:30:46;;;;;;;11.82;7.57;;;21.10;99.90;;;;;;5070735;28;20095;-73
2021/06/22 07:33:14;;;;;;;9.38;7.25;;;21.50;99.90;;;;;;5071958;28;20024;-73
2021/06/22 07:35:42;;;;;;;12.57;8.15;;;;;;;;;;5070035;28;20427;-73
2021/06/22 07:38:07;;;;;;;8.90;6.65;;;22.20;99.90;;;;;;5071280;28;20021;-73
2021/06/22 07:40:33;;;;;;;7.20;5.75;;;22.90;99.90;;;;;;5052554;28;20469;-75
2021/06/22 07:42:59;;;;;;;8.88;5.72;;;22.60;99.90;;;;;;5071265;28;20028;-74
2021/06/22 07:45:25;;;;;;;10.50;5.15;;;22.60;99.90;;;;;;5071294;28;20033;-73
2021/06/22 07:47:51;;;;;;;6.25;5.05;;;22.70;99.90;;;;;;5070181;28;20042;-74
2021/06/22 07:50:16;;;;;;;9.13;5.38;;;22.70;99.90;;;;;;5070649;28;20048;-73
2021/06/22 07:52:43;;;;;;;9.55;5.47;;;22.70;99.90;;;;;;5070160;28;20020;-74
2021/06/22 07:55:15;;;;;;;8.57;4.60;;;22.90;99.90;;;;;;5071325;28;20592;-74
2021/06/22 07:57:48;;;;;;;9.68;5.40;;;23.20;99.90;;;;;;5060939;28;20039;-74
2021/06/22 08:00:43;;;;;;;7.15;5.15;;;23.40;99.90;;;;;;5052804;28;20040;-73
2021/06/22 08:03:11;;;;;;;8.07;4.60;;;;;;;;;;5071377;28;20025;-74
2021/06/22 08:05:38;;;;;;;9.30;5.25;;;;;;;;;;5069733;28;20012;-74
2021/06/22 08:08:04;;;;;;;6.38;4.68;;;;;;;;;;5064840;28;20025;-73
2021/06/22 08:10:30;;;;;;;8.95;4.10;;;22.70;99.90;;;;;;5065105;28;20040;-63
2021/06/22 08:12:57;;;;;;;4.30;3.38;;;22.50;99.90;;;;;;5070483;28;20063;-62
2021/06/22 08:15:23;;;;;;;3.28;2.95;;;22.40;99.90;;;;;;5070658;28;20036;-62
2021/06/22 08:17:49;;;;;;;5.32;3.10;;;22.20;99.90;;;;;;5069657;28;20478;-62
2021/06/22 08:20:15;;;;;;;7.57;3.55;;;22.10;99.90;;;;;;5071186;28;20089;-62
2021/06/22 08:22:41;;;;;;;8.98;4.45;;;22.00;99.90;;;;;;5069625;28;20029;-62
2021/06/22 08:25:08;;;;;;;7.55;5.00;;;21.90;99.90;;;;;;5070536;28;20054;-63
2021/06/22 08:27:34;;;;;;;6.88;4.35;;;22.00;99.90;;;;;;5066938;28;20489;-63
2021/06/22 08:30:00;;;;;;;5.28;3.45;;;21.90;99.90;;;;;;5069662;28;20036;-63
2021/06/22 08:32:26;;;;;;;7.93;4.65;;;21.80;99.90;;;;;;5070403;28;20470;-62
2021/06/22 08:34:52;;;;;;;5.32;4.07;;;21.80;99.90;;;;;;5069712;28;20028;-63
2021/06/22 08:37:17;;;;;;;6.07;4.20;;;21.60;99.90;;;;;;5070382;28;20423;-63
2021/06/22 08:39:43;;;;;;;8.30;4.88;;;21.30;99.90;;;;;;5068143;28;20032;-63
2021/06/22 08:42:11;;;;;;;8.00;4.88;;;21.10;99.90;;;;;;5071099;28;20032;-62
2021/06/22 08:44:38;;;;;;;11.20;5.60;;;20.80;99.90;;;;;;5069923;28;20099;-62
2021/06/22 08:47:04;;;;;;;7.43;5.35;;;20.60;99.90;;;;;;5070649;28;20374;-62
2021/06/22 08:49:33;;;;;;;6.57;5.20;;;20.50;99.90;;;;;;5068258;28;20029;-62
2021/06/22 08:52:00;;;;;;;6.45;4.25;;;20.40;99.90;;;;;;5064109;28;20078;-63
2021/06/22 08:54:26;;;;;;;8.35;5.47;;;20.30;99.90;;;;;;5080188;28;20441;-62
2021/06/22 08:56:54;;;;;;;9.38;6.72;;;20.30;99.90;;;;;;5086191;28;20037;-63
2021/06/22 08:59:20;;;;;;;8.55;7.57;;;20.30;99.90;;;;;;5081228;28;20032;-62
2021/06/22 09:01:46;;;;;;;10.50;6.10;;;20.50;99.90;;;;;;5077911;28;20377;-62
2021/06/22 09:04:12;;;;;;;9.07;6.75;;;20.50;99.90;;;;;;5091707;28;20103;-63
2021/06/22 09:06:43;;;;;;;12.40;6.72;;;20.50;99.90;;;;;;5085716;28;20413;-63
2021/06/22 09:09:10;;;;;;;12.20;7.88;;;20.60;99.90;;;;;;5089855;28;20102;-63
2021/06/22 09:11:36;;;;;;;14.10;7.38;;;20.70;99.90;;;;;;5095201;28;20066;-63
2021/06/22 09:14:05;;;;;;;9.95;6.38;;;20.70;99.90;;;;;;5095019;28;20469;-63
2021/06/22 09:16:31;;;;;;;8.43;6.97;;;20.70;99.90;;;;;;5093454;28;20032;-63
2021/06/22 09:19:09;;;;;;;9.57;7.13;;;20.70;99.90;;;;;;5093860;28;20479;-63
2021/06/22 09:21:45;;;;;;;12.35;7.95;;;20.70;99.90;;;;;;5094405;28;20511;-63
2021/06/22 09:24:22;;;;;;;9.68;7.32;;;20.80;99.90;;;;;;5090278;28;20114;-62
2021/06/22 09:26:49;;;;;;;8.65;6.50;;;20.80;99.90;;;;;;5093183;28;20116;-62
2021/06/22 09:29:19;;;;;;;13.25;8.15;;;20.90;99.90;;;;;;5091475;28;20034;-63
2021/06/22 09:31:56;;;;;;;15.43;6.68;;;21.00;99.90;;;;;;5086429;28;20028;-63
2021/06/22 09:34:24;;;;;;;11.48;8.52;;;21.00;99.90;;;;;;5094541;28;20032;-63
2021/06/22 09:36:52;;;;;;;13.55;9.80;;;21.10;99.90;;;;;;5093000;28;20031;-63
2021/06/22 09:39:19;;;;;;;16.75;10.77;;;21.10;99.90;;;;;;5094104;28;20024;-62
2021/06/22 09:41:45;;;;;;;14.00;9.70;;;21.00;99.90;;;;;;5093400;28;20024;-62
2021/06/22 09:44:11;;;;;;;11.38;9.10;;;21.10;99.90;;;;;;5093842;28;20028;-64
2021/06/22 09:46:52;;;;;;;11.88;10.00;;;21.10;99.90;;;;;;5093418;28;20024;-63
2021/06/22 09:49:22;;;;;;;14.07;10.10;;;21.00;99.90;;;;;;5094115;28;20017;-64
2021/06/22 09:54:19;;;;;;;14.07;10.00;;;20.70;99.90;;;;;;5069206;28;20429;-62
2021/06/22 09:57:02;;;;;;;12.18;10.07;;;20.60;99.90;;;;;;5073462;28;20501;-64
2021/06/22 09:59:31;;;;;;;16.60;11.07;;;20.70;99.90;;;;;;5070654;28;20036;-62
2021/06/22 10:02:08;;;;;;;12.13;9.57;;;20.90;99.90;;;;;;5072657;28;20776;-62
2021/06/22 10:04:34;;;;;;;11.85;9.40;;;21.00;99.90;;;;;;5073575;28;20499;-62
2021/06/22 10:07:00;;;;;;;14.20;9.40;;;21.10;99.90;;;;;;5072907;28;20067;-62
2021/06/22 10:09:28;;;;;;;13.77;8.98;;;21.10;99.90;;;;;;5070011;28;20048;-62
2021/06/22 10:12:07;;;;;;;10.30;9.30;;;21.00;99.90;;;;;;5073370;28;20604;-65
2021/06/22 10:14:35;;;;;;;12.93;9.00;;;21.00;99.90;;;;;;5073410;28;20051;-63
2021/06/22 10:17:04;;;;;;;10.55;8.20;;;21.00;99.90;;;;;;5073386;28;20274;-63
2021/06/22 10:19:30;;;;;;;14.40;7.32;;;21.30;99.90;;;;;;5072884;28;20036;-62
2021/06/22 10:21:57;;;;;;;7.70;6.97;;;21.70;99.90;;;;;;5062663;28;20029;-63
2021/06/22 10:24:24;;;;;;;8.90;6.70;;;22.00;99.90;;;;;;5068876;28;20033;-62
2021/06/22 10:26:50;;;;;;;10.27;8.13;;;22.20;99.90;;;;;;5054337;28;20036;-63
2021/06/22 10:29:21;;;;;;;7.68;6.50;;;22.40;99.90;;;;;;5066240;28;20020;-62
2021/06/22 10:31:48;;;;;;;6.45;5.50;;;22.40;99.90;;;;;;5073611;28;20066;-63
2021/06/22 10:34:14;;;;;;;10.00;5.47;;;22.30;99.90;;;;;;5072279;28;20052;-63
2021/06/22 10:36:56;;;;;;;5.70;5.10;;;22.30;99.90;;;;;;5070971;28;20533;-63
2021/06/22 10:39:33;;;;;;;7.65;6.57;;;22.10;99.90;;;;;;5053332;28;20021;-63
2021/06/22 10:42:08;;;;;;;5.72;5.22;;;21.90;99.90;;;;;;5065386;28;20056;-63
2021/06/22 10:44:36;;;;;;;9.80;6.38;;;21.80;99.90;;;;;;5073326;28;20075;-62
2021/06/22 10:47:34;;;;;;;10.32;6.38;;;21.50;99.90;;;;;;5072081;28;20382;-63
2021/06/22 10:50:12;;;;;;;6.13;4.70;;;21.30;99.90;;;;;;5065899;28;20040;-63
2021/06/22 10:52:45;;;;;;;5.40;4.85;;;21.10;99.90;;;;;;5071390;28;20024;-63
2021/06/22 10:55:31;;;;;;;7.10;4.90;;;20.90;99.90;;;;;;5066650;28;20163;-63
2021/06/22 10:58:00;;;;;;;5.63;4.70;;;20.80;99.90;;;;;;5052464;28;20424;-63
2021/06/22 11:00:36;;;;;;;8.65;4.50;;;20.70;99.90;;;;;;5072654;28;20381;-63
2021/06/22 11:03:07;;;;;;;3.70;3.40;;;20.70;99.90;;;;;;5065193;28;20089;-63
2021/06/22 11:05:35;;;;;;;5.93;4.20;;;20.60;99.90;;;;;;5071757;28;20063;-63
2021/06/22 11:08:13;;;;;;;6.65;4.95;;;20.60;99.90;;;;;;5071515;28;20493;-62
2021/06/22 11:10:42;;;;;;;8.60;5.45;;;20.40;99.90;;;;;;5070465;28;20025;-63
2021/06/22 11:13:28;;;;;;;7.15;5.78;;;20.10;99.90;;;;;;5071726;28;20029;-63
2021/06/22 11:15:55;;;;;;;13.45;10.00;;;;;;;;;;5070596;28;20036;-63
2021/06/22 11:18:21;;;;;;;12.95;11.77;;;;;;;;;;5072065;28;20103;-63
2021/06/22 11:20:54;;;;;;;10.10;7.38;;;;;;;;;;5070783;28;20380;-63
2021/06/22 11:23:23;;;;;;;13.20;8.30;;;;;;;;;;5072016;28;20363;-63
2021/06/22 11:25:58;;;;;;;10.23;9.23;;;18.90;99.90;;;;;;5067200;28;20432;-63
2021/06/22 11:28:25;;;;;;;11.50;8.20;;;;;;;;;;5066626;28;20036;-63
2021/06/22 11:30:54;;;;;;;11.20;8.70;;;;;;;;;;5070558;28;20561;-63
2021/06/22 11:33:29;;;;;;;13.30;9.20;;;;;;;;;;5071640;28;20028;-63
2021/06/22 11:36:16;;;;;;;11.40;8.77;;;18.60;99.90;;;;;;5071421;28;20047;-64
2021/06/22 11:38:45;;;;;;;13.75;8.05;;;18.80;99.90;;;;;;5070429;28;20032;-63
2021/06/22 11:41:15;;;;;;;8.10;6.40;;;18.90;99.90;;;;;;5062996;28;20029;-63
2021/06/22 11:44:08;;;;;;;11.85;6.55;;;18.80;99.90;;;;;;5070579;28;20512;-63
2021/06/22 11:46:41;;;;;;;9.65;6.45;;;18.80;99.90;;;;;;5063572;28;20024;-63
2021/06/22 11:49:08;;;;;;;8.10;7.13;;;18.80;99.90;;;;;;5060981;28;20033;-64
2021/06/22 11:51:51;;;;;;;9.55;6.40;;;18.70;99.90;;;;;;5052592;28;20047;-63
2021/06/22 11:54:19;;;;;;;8.48;6.25;;;18.80;99.90;;;;;;5063265;28;20086;-64
2021/06/22 11:56:48;;;;;;;11.68;6.70;;;18.70;99.90;;;;;;5070033;28;20043;-63
2021/06/22 11:59:15;;;;;;;10.20;7.38;;;18.70;99.90;;;;;;5067006;28;20413;-64
2021/06/22 12:01:47;;;;;;;7.97;6.63;;;18.80;99.90;;;;;;5070412;28;20575;-64
2021/06/22 12:04:13;;;;;;;8.68;7.47;;;18.70;99.90;;;;;;5071214;28;20485;-64
2021/06/22 12:06:40;;;;;;;12.90;8.15;;;18.70;99.90;;;;;;5052471;28;20462;-64
2021/06/22 12:09:19;;;;;;;9.60;7.15;;;18.70;99.90;;;;;;5070253;28;20032;-64
2021/06/22 12:11:47;;;;;;;8.98;5.97;;;18.80;99.90;;;;;;5070473;28;20042;-63
2021/06/22 12:14:13;;;;;;;10.00;6.60;;;18.80;99.90;;;;;;5071620;28;20041;-63
2021/06/22 12:16:40;;;;;;;7.95;6.82;;;18.80;99.90;;;;;;5064914;28;20064;-64
2021/06/22 12:19:13;;;;;;;12.40;6.43;;;18.70;99.90;;;;;;5051609;28;20462;-63
2021/06/22 12:21:39;;;;;;;9.30;6.07;;;18.70;99.90;;;;;;5051288;28;20063;-64
2021/06/22 12:24:10;;;;;;;9.32;6.03;;;18.70;99.90;;;;;;5051493;28;20029;-63
2021/06/22 12:26:39;;;;;;;7.95;6.07;;;18.70;99.90;;;;;;5051361;28;20021;-63
2021/06/22 12:29:19;;;;;;;7.13;5.60;;;18.80;99.90;;;;;;5058847;28;20120;-64
2021/06/22 12:32:07;;;;;;;6.72;5.70;;;18.80;99.90;;;;;;5070805;28;20029;-64
2021/06/22 12:34:35;;;;;;;8.52;6.13;;;18.80;99.90;;;;;;5071468;28;20053;-64
2021/06/22 12:37:02;;;;;;;6.75;5.82;;;18.70;99.90;;;;;;5070328;28;20105;-64
2021/06/22 12:39:40;;;;;;;8.32;6.72;;;18.60;99.90;;;;;;5061603;28;20051;-64
2021/06/22 12:42:08;;;;;;;9.23;7.05;;;18.50;99.90;;;;;;5059459;28;20031;-64
2021/06/22 12:44:35;;;;;;;8.10;7.05;;;18.40;99.90;;;;;;5054522;28;20032;-64
2021/06/22 12:47:08;;;;;;;9.38;7.20;;;18.30;99.90;;;;;;5074364;28;20082;-65
2021/06/22 12:49:37;;;;;;;13.45;8.88;;;;;;;;;;5058598;28;20474;-64
2021/06/22 12:52:05;;;;;;;11.43;8.95;;;;;;;;;;5058294;28;20024;-64